Time;durP1;ratioP1;P1;durP2;ratioP2;P2;SDS_P1;SDS_P2;PMS_P1;PMS_P2;Temp;Humidity;BMP_temperature;BMP_pressure;BME280_temperature;BME280_humidity;BME280_pressure;Samples;Min_cycle;Max_cycle;Signal;HPM_P1;HPM_P2
2021/09/20 00:01:36;;;;;;;4.55;1.00;;;;;;;16.10;62.25;100992.38;4976243;28;20482;-93
2021/09/20 00:04:02;;;;;;;4.53;1.20;;;;;;;16.12;63.03;101001.03;4986081;28;20023;-92
2021/09/20 00:06:28;;;;;;;6.72;1.80;;;;;;;16.08;62.99;101004.91;4994620;28;20022;-92
2021/09/20 00:08:53;;;;;;;2.58;0.95;;;;;;;16.05;62.76;101000.69;4992423;28;20031;-90
2021/09/20 00:11:19;;;;;;;4.15;1.10;;;;;;;16.03;62.97;101007.06;4993049;28;20186;-91
2021/09/20 00:13:44;;;;;;;3.10;1.00;;;;;;;15.68;63.85;101000.16;4992605;28;20038;-90
2021/09/20 00:16:10;;;;;;;6.10;1.45;;;;;;;15.67;64.29;101009.03;4996182;28;20030;-91
2021/09/20 00:18:35;;;;;;;9.45;1.20;;;;;;;15.81;63.90;101007.97;5007684;28;20080;-91
2021/09/20 00:21:01;;;;;;;7.63;1.15;;;;;;;15.89;63.71;100999.41;5000727;28;20033;-91
2021/09/20 00:23:26;;;;;;;3.90;0.90;;;;;;;15.88;63.61;101003.00;5009904;28;20489;-91
2021/09/20 00:25:53;;;;;;;6.13;1.10;;;;;;;15.82;64.19;101010.50;5010137;28;20035;-91
2021/09/20 00:28:18;;;;;;;4.85;0.90;;;;;;;15.95;63.46;101004.22;5011278;28;20034;-92
2021/09/20 00:30:43;;;;;;;7.50;1.52;;;;;;;16.10;62.65;101016.22;5006926;28;20045;-90
2021/09/20 00:33:09;;;;;;;5.55;1.33;;;;;;;16.01;62.74;101011.66;4994203;28;20034;-91
2021/09/20 00:35:35;;;;;;;8.13;1.48;;;;;;;15.81;63.95;101008.81;4993140;28;20034;-90
2021/09/20 00:38:01;;;;;;;7.10;1.25;;;;;;;15.81;63.70;101006.16;4990170;28;20023;-91
2021/09/20 00:40:26;;;;;;;2.95;1.15;;;;;;;15.56;64.84;101006.41;4995219;28;20058;-90
2021/09/20 00:42:52;;;;;;;6.00;1.20;;;;;;;15.57;65.17;101013.38;5002846;28;20087;-91
2021/09/20 00:45:17;;;;;;;7.68;1.45;;;;;;;15.67;63.92;101006.41;5001864;28;20022;-92
2021/09/20 00:47:42;;;;;;;4.15;1.27;;;;;;;15.63;64.83;101015.53;5003861;28;20037;-90
2021/09/20 00:50:09;;;;;;;2.78;0.90;;;;;;;15.70;64.57;101021.19;4988747;28;20033;-91
2021/09/20 00:52:35;;;;;;;5.93;1.05;;;;;;;15.69;64.71;101027.47;4996787;28;20030;-92
2021/09/20 00:55:01;;;;;;;4.75;1.13;;;;;;;15.66;64.42;101026.75;4992045;28;20114;-93
2021/09/20 00:57:27;;;;;;;6.50;1.40;;;;;;;15.85;63.89;101031.41;4992919;28;20033;-92
2021/09/20 00:59:52;;;;;;;3.05;0.93;;;;;;;15.80;64.10;101023.03;4993283;28;20493;-92
2021/09/20 01:02:18;;;;;;;7.43;1.08;;;;;;;15.92;63.31;101029.13;4993013;28;20026;-92
2021/09/20 01:04:43;;;;;;;3.38;0.90;;;;;;;15.89;63.66;101031.19;4993075;28;20022;-92
2021/09/20 01:07:09;;;;;;;3.50;0.77;;;;;;;15.85;63.82;101026.13;4984027;28;20394;-92
2021/09/20 01:09:39;;;;;;;6.43;1.33;;;;;;;15.83;63.84;101022.75;4973771;28;20081;-92
2021/09/20 01:12:05;;;;;;;5.65;1.15;;;;;;;15.63;64.68;101020.84;4973538;28;20023;-92
2021/09/20 01:14:30;;;;;;;3.25;1.10;;;;;;;15.66;64.39;101021.44;4973909;28;20366;-92
2021/09/20 01:16:56;;;;;;;6.85;1.27;;;;;;;15.76;64.19;101021.59;4973419;28;20078;-92
2021/09/20 01:19:21;;;;;;;6.70;1.10;;;;;;;15.85;63.79;101028.78;4972303;28;20027;-93
2021/09/20 01:21:46;;;;;;;7.55;1.58;;;;;;;15.47;64.69;101016.75;4977460;28;20041;-92
2021/09/20 01:24:12;;;;;;;2.53;0.90;;;;;;;15.62;64.56;101022.66;4977339;28;20028;-91
2021/09/20 01:26:37;;;;;;;4.25;1.00;;;;;;;15.53;64.81;101019.91;4977069;28;20019;-94
2021/09/20 01:29:06;;;;;;;6.18;1.08;;;;;;;15.79;64.40;101026.63;4977410;28;20037;-91
2021/09/20 01:31:31;;;;;;;6.68;0.98;;;;;;;15.50;64.80;101010.41;4977150;28;20086;-92
2021/09/20 01:33:57;;;;;;;7.20;1.30;;;;;;;15.76;64.10;101024.22;4975897;28;20429;-92
2021/09/20 01:36:22;;;;;;;4.78;1.27;;;;;;;15.78;63.97;101027.59;4976999;28;20062;-92
2021/09/20 01:38:47;;;;;;;5.05;0.90;;;;;;;15.72;63.98;101024.56;4977087;28;20039;-92
2021/09/20 01:41:13;;;;;;;10.20;1.40;;;;;;;15.58;64.46;101020.34;4977250;28;20022;-92
2021/09/20 01:43:38;;;;;;;7.28;1.17;;;;;;;15.50;65.36;101030.72;4977024;28;20031;-91
2021/09/20 01:46:04;;;;;;;4.75;0.95;;;;;;;15.61;64.56;101028.91;4976917;28;20073;-92
2021/09/20 01:48:29;;;;;;;5.45;1.00;;;;;;;15.67;64.06;101040.81;4977158;28;20050;-92
2021/09/20 01:50:55;;;;;;;6.10;1.13;;;;;;;15.73;63.96;101039.53;4976783;28;20111;-92
2021/09/20 01:53:20;;;;;;;2.60;0.80;;;;;;;15.70;64.00;101048.53;4980914;28;20026;-94
2021/09/20 01:55:46;;;;;;;5.22;0.80;;;;;;;15.71;63.75;101044.91;4996039;28;20019;-92
2021/09/20 01:58:11;;;;;;;4.60;1.00;;;;;;;15.65;64.05;101043.56;4996105;28;20461;-93
2021/09/20 02:00:36;;;;;;;6.32;0.80;;;;;;;15.64;64.05;101049.00;4996200;28;20088;-93
2021/09/20 02:03:02;;;;;;;9.75;1.30;;;;;;;15.30;65.42;101043.69;4996433;28;20149;-92
2021/09/20 02:05:27;;;;;;;4.03;0.90;;;;;;;15.41;65.26;101046.34;4996245;28;20461;-92
2021/09/20 02:07:52;;;;;;;6.20;0.90;;;;;;;15.50;64.76;101049.22;4995885;28;20034;-90
2021/09/20 02:10:18;;;;;;;3.25;0.80;;;;;;;15.52;64.32;101047.31;4979339;28;20035;-90
2021/09/20 02:12:44;;;;;;;8.45;0.93;;;;;;;15.46;64.83;101051.28;4975073;28;20027;-91
2021/09/20 02:15:10;;;;;;;3.75;0.90;;;;;;;15.46;64.32;101052.13;4976234;28;20031;-92
2021/09/20 02:17:36;;;;;;;6.15;0.80;;;;;;;15.49;64.53;101052.84;4976434;28;20508;-92
2021/09/20 02:20:03;;;;;;;5.68;1.20;;;;;;;15.44;64.58;101064.66;4976291;28;20023;-92
2021/09/20 02:22:28;;;;;;;4.25;1.23;;;;;;;15.43;64.77;101056.81;4976163;28;20038;-91
2021/09/20 02:24:54;;;;;;;4.57;1.05;;;;;;;15.30;65.49;101054.28;4974792;28;20478;-92
2021/09/20 02:27:19;;;;;;;10.52;1.20;;;;;;;15.24;65.35;101057.41;4991769;28;20109;-91
2021/09/20 02:29:45;;;;;;;4.35;1.08;;;;;;;15.28;65.01;101064.13;4995482;28;20134;-92
2021/09/20 02:32:10;;;;;;;2.13;0.85;;;;;;;15.26;65.07;101056.34;4994596;28;20027;-92
2021/09/20 02:34:36;;;;;;;3.63;1.20;;;;;;;15.27;64.67;101063.31;4994128;28;20500;-92
2021/09/20 02:37:02;;;;;;;4.78;1.17;;;;;;;15.11;65.07;101054.03;4995237;28;20037;-92
2021/09/20 02:39:27;;;;;;;9.98;1.17;;;;;;;14.95;65.44;101054.34;4994493;28;20029;-92
2021/09/20 02:41:53;;;;;;;4.80;0.93;;;;;;;15.03;65.56;101066.03;4980325;28;20031;-92
2021/09/20 02:44:18;;;;;;;7.95;1.52;;;;;;;14.67;67.13;101065.22;4976674;28;20055;-92
2021/09/20 02:46:44;;;;;;;4.93;1.27;;;;;;;14.98;66.13;101069.97;4975963;28;20027;-91
2021/09/20 02:49:09;;;;;;;7.40;1.33;;;;;;;15.02;66.17;101069.63;4975924;28;20489;-91
2021/09/20 02:51:34;;;;;;;6.68;1.25;;;;;;;15.07;65.74;101070.13;4975723;28;20413;-91
2021/09/20 02:54:00;;;;;;;3.40;1.08;;;;;;;14.93;66.26;101074.75;4974157;28;20035;-91
2021/09/20 02:56:25;;;;;;;7.20;1.08;;;;;;;15.05;66.02;101072.03;4975377;28;20027;-91
2021/09/20 02:58:51;;;;;;;4.57;1.10;;;;;;;15.06;65.98;101075.53;4976512;28;20173;-91
2021/09/20 03:01:16;;;;;;;3.95;0.95;;;;;;;15.15;65.57;101076.66;4975727;28;20037;-91
2021/09/20 03:03:41;;;;;;;6.25;1.20;;;;;;;15.07;65.77;101072.78;4975236;28;20146;-91
2021/09/20 03:06:07;;;;;;;5.53;1.20;;;;;;;15.08;65.41;101069.16;4975147;28;20508;-91
2021/09/20 03:08:32;;;;;;;4.72;1.10;;;;;;;15.15;65.36;101074.00;4975216;28;20162;-90
2021/09/20 03:10:58;;;;;;;6.85;0.98;;;;;;;15.07;65.29;101071.94;4973869;28;20035;-91
2021/09/20 03:13:23;;;;;;;4.63;0.80;;;;;;;15.07;65.04;101082.50;4985816;28;20049;-92
2021/09/20 03:15:49;;;;;;;3.35;1.00;;;;;;;15.02;65.23;101074.91;4993252;28;20026;-92
2021/09/20 03:18:14;;;;;;;6.18;0.70;;;;;;;14.99;65.21;101072.50;4994622;28;20018;-92
2021/09/20 03:20:40;;;;;;;7.28;0.90;;;;;;;15.01;65.03;101080.34;4994682;28;20038;-92
2021/09/20 03:23:05;;;;;;;3.95;0.90;;;;;;;14.99;65.33;101082.25;4994389;28;20059;-91
2021/09/20 03:25:31;;;;;;;7.00;1.20;;;;;;;15.01;64.81;101085.63;4994282;28;20025;-92
2021/09/20 03:27:56;;;;;;;5.43;0.85;;;;;;;15.03;64.85;101086.34;4984552;28;20039;-91
2021/09/20 03:30:21;;;;;;;3.10;1.10;;;;;;;14.97;64.77;101087.66;4974777;28;20035;-92
2021/09/20 03:32:47;;;;;;;4.95;1.27;;;;;;;14.90;65.15;101083.78;4974782;28;20019;-92
2021/09/20 03:35:15;;;;;;;2.95;0.93;;;;;;;14.92;65.29;101086.31;4974835;28;20026;-91
2021/09/20 03:37:43;;;;;;;6.03;1.30;;;;;;;14.95;65.07;101091.34;4974936;28;20027;-92
2021/09/20 03:40:11;;;;;;;3.30;0.70;;;;;;;14.92;65.29;101096.88;4974632;28;20058;-92
2021/09/20 03:42:36;;;;;;;4.47;0.90;;;;;;;14.88;65.14;101098.91;4982880;28;20033;-92
2021/09/20 03:45:02;;;;;;;5.60;1.08;;;;;;;14.87;64.75;101102.53;4993145;28;20026;-92
2021/09/20 03:47:27;;;;;;;4.47;1.23;;;;;;;14.85;65.44;101101.81;4993557;28;20029;-92
2021/09/20 03:49:53;;;;;;;2.67;1.00;;;;;;;14.82;64.98;101107.31;4993794;28;20026;-92
2021/09/20 03:52:18;;;;;;;5.07;1.20;;;;;;;14.80;64.87;101111.88;4993947;28;20265;-92
2021/09/20 03:54:44;;;;;;;1.65;0.52;;;;;;;14.72;65.02;101108.97;4993668;28;20034;-91
2021/09/20 03:57:09;;;;;;;4.30;0.70;;;;;;;14.70;64.67;101111.72;4984902;28;20121;-92
2021/09/20 03:59:35;;;;;;;4.60;0.90;;;;;;;14.62;64.72;101107.00;4984598;28;20030;-91
2021/09/20 04:02:00;;;;;;;4.13;0.80;;;;;;;14.58;64.39;101105.53;4993364;28;20030;-91
2021/09/20 04:04:26;;;;;;;4.22;1.00;;;;;;;14.55;64.44;101113.63;4992309;28;20031;-91
2021/09/20 04:06:51;;;;;;;2.10;0.65;;;;;;;14.55;64.63;101116.28;4993406;28;20032;-92
2021/09/20 04:09:17;;;;;;;3.35;0.63;;;;;;;14.57;64.70;101122.31;4993810;28;20034;-92
2021/09/20 04:11:42;;;;;;;6.15;1.30;;;;;;;14.48;63.99;101125.63;4993557;28;20428;-92
2021/09/20 04:14:08;;;;;;;4.85;0.90;;;;;;;14.34;65.46;101115.22;4985125;28;20042;-92
2021/09/20 04:16:34;;;;;;;6.22;1.13;;;;;;;14.37;65.43;101129.03;4973842;28;20050;-93
2021/09/20 04:18:59;;;;;;;4.38;1.10;;;;;;;14.40;65.90;101133.28;4973907;28;20465;-92
2021/09/20 04:21:25;;;;;;;6.40;0.95;;;;;;;14.38;65.59;101132.53;4973768;28;20030;-92
2021/09/20 04:23:50;;;;;;;2.25;0.88;;;;;;;14.36;65.69;101132.66;4973668;28;20031;-92
2021/09/20 04:26:16;;;;;;;3.47;1.00;;;;;;;14.37;65.32;101136.13;4972429;28;20504;-92
2021/09/20 04:28:41;;;;;;;3.47;1.20;;;;;;;14.30;65.32;101130.47;4982205;28;20070;-91
2021/09/20 04:31:06;;;;;;;4.72;0.63;;;;;;;14.33;65.16;101132.03;4972077;28;20030;-92
2021/09/20 04:33:32;;;;;;;2.78;0.98;;;;;;;14.32;65.08;101138.28;4973450;28;20384;-91
2021/09/20 04:35:57;;;;;;;2.10;0.80;;;;;;;14.33;65.37;101145.22;4973352;28;20041;-93
2021/09/20 04:38:23;;;;;;;2.28;0.80;;;;;;;14.33;64.94;101142.59;4973498;28;20031;-92
2021/09/20 04:40:48;;;;;;;6.07;0.70;;;;;;;14.27;65.35;101150.00;4973659;28;20030;-91
2021/09/20 04:43:14;;;;;;;2.55;0.70;;;;;;;14.25;65.25;101149.25;4973411;28;20022;-92
2021/09/20 04:45:41;;;;;;;4.65;0.95;;;;;;;14.28;65.36;101154.34;4971895;28;20046;-92
2021/09/20 04:48:10;;;;;;;5.15;0.93;;;;;;;14.23;64.63;101151.16;4973188;28;20090;-91
2021/09/20 04:50:41;;;;;;;4.15;1.02;;;;;;;14.10;65.08;101147.72;4972346;28;20027;-92
2021/09/20 04:53:06;;;;;;;2.37;0.93;;;;;;;13.98;65.52;101152.09;4973399;28;20050;-92
2021/09/20 04:55:32;;;;;;;3.13;0.75;;;;;;;13.91;65.64;101150.81;4973043;28;20065;-92
2021/09/20 04:57:57;;;;;;;4.90;0.95;;;;;;;13.85;65.67;101159.16;4973546;28;20018;-91
2021/09/20 05:00:22;;;;;;;3.88;0.93;;;;;;;13.84;65.12;101160.97;4973282;28;20501;-93
2021/09/20 05:02:48;;;;;;;4.85;1.15;;;;;;;13.77;65.22;101162.34;4972111;28;20393;-92
2021/09/20 05:05:13;;;;;;;4.25;0.90;;;;;;;13.72;65.28;101174.16;4973155;28;20110;-92
2021/09/20 05:07:39;;;;;;;3.05;0.98;;;;;;;13.69;65.42;101168.13;4973114;28;20042;-93
2021/09/20 05:10:05;;;;;;;2.13;1.05;;;;;;;13.64;64.96;101170.25;4973261;28;20106;-92
2021/09/20 05:12:30;;;;;;;4.20;1.40;;;;;;;13.66;64.38;101172.78;4973945;28;20065;-92
2021/09/20 05:14:55;;;;;;;4.13;1.25;;;;;;;13.67;64.66;101170.03;4989011;28;20552;-92
2021/09/20 05:17:21;;;;;;;4.80;0.90;;;;;;;13.69;64.31;101178.69;4992165;28;20199;-92
2021/09/20 05:19:46;;;;;;;2.83;1.10;;;;;;;13.58;64.92;101172.47;4996508;28;20281;-93
2021/09/20 05:22:12;;;;;;;4.82;1.10;;;;;;;13.54;64.83;101181.53;4995246;28;20032;-93
2021/09/20 05:24:37;;;;;;;6.40;1.52;;;;;;;13.42;66.20;101180.56;4993299;28;20022;-92
2021/09/20 05:27:02;;;;;;;5.57;1.25;;;;;;;13.55;66.83;101180.59;4986395;28;20476;-92
2021/09/20 05:29:28;;;;;;;4.20;1.13;;;;;;;13.61;66.84;101174.91;4980556;28;20033;-91
2021/09/20 05:31:53;;;;;;;6.22;1.40;;;;;;;13.66;67.07;101180.69;4973131;28;20082;-96
2021/09/20 05:34:19;;;;;;;2.22;0.82;;;;;;;13.78;66.06;101182.47;4981698;28;20114;-94
2021/09/20 05:36:45;;;;;;;3.67;1.35;;;;;;;13.76;65.89;101183.56;4980827;28;20118;-93
2021/09/20 05:39:11;;;;;;;4.53;1.00;;;;;;;13.75;65.18;101195.06;4989214;28;20042;-93
2021/09/20 05:41:36;;;;;;;4.03;1.25;;;;;;;13.65;65.41;101192.22;4991160;28;20031;-93
2021/09/20 05:44:02;;;;;;;4.88;1.40;;;;;;;13.57;64.83;101191.91;4977144;28;20038;-94
2021/09/20 05:46:27;;;;;;;4.32;1.52;;;;;;;13.57;65.42;101191.91;4983700;28;20030;-93
2021/09/20 05:48:52;;;;;;;1.63;0.90;;;;;;;13.60;65.08;101203.06;4991301;28;20117;-92
2021/09/20 05:51:18;;;;;;;6.25;1.70;;;;;;;13.58;66.16;101202.31;4991634;28;20468;-94
2021/09/20 05:53:43;;;;;;;7.25;1.15;;;;;;;13.53;67.96;101209.72;4992541;28;20022;-94
2021/09/20 05:56:11;;;;;;;5.97;1.65;;;;;;;13.62;69.03;101218.81;4992381;28;20540;-94
2021/09/20 05:58:36;;;;;;;33.42;2.72;;;;;;;13.77;69.69;101207.22;4976079;28;20389;-94
2021/09/20 06:01:02;;;;;;;8.20;1.40;;;;;;;13.88;69.35;101204.69;4971758;28;20027;-93
2021/09/20 06:03:27;;;;;;;6.70;1.67;;;;;;;14.08;68.58;101210.38;4972986;28;20113;-94
2021/09/20 06:05:52;;;;;;;5.70;1.58;;;;;;;14.01;69.48;101201.19;4972705;28;20089;-94
2021/09/20 06:08:18;;;;;;;8.77;1.08;;;;;;;14.21;68.39;101205.91;4975947;28;20035;-94
2021/09/20 06:10:43;;;;;;;5.07;1.98;;;;;;;14.17;69.07;101216.78;4975472;28;20023;-96
2021/09/20 06:13:09;;;;;;;5.25;1.13;;;;;;;14.20;69.28;101212.16;4989504;28;20037;-93
2021/09/20 06:15:35;;;;;;;12.82;1.90;;;;;;;14.49;68.10;101209.22;4977125;28;20506;-93
2021/09/20 06:18:01;;;;;;;4.93;1.08;;;;;;;14.64;67.31;101213.44;4975213;28;20031;-95
2021/09/20 06:20:27;;;;;;;10.27;1.60;;;;;;;14.63;67.21;101216.19;4975170;28;20031;-94
2021/09/20 06:22:52;;;;;;;4.00;1.05;;;;;;;14.62;67.05;101220.63;4975114;28;20022;-94
2021/09/20 06:25:18;;;;;;;5.25;1.38;;;;;;;14.66;66.87;101223.91;4976325;28;20023;-94
2021/09/20 06:27:44;;;;;;;6.68;1.95;;;;;;;14.65;67.08;101219.56;4976316;28;20037;-94
2021/09/20 06:30:11;;;;;;;3.65;1.35;;;;;;;14.77;67.22;101229.28;4977711;28;20031;-94
2021/09/20 06:32:37;;;;;;;5.93;1.17;;;;;;;14.60;67.61;101232.28;4961409;28;20030;-95
2021/09/20 06:35:03;;;;;;;8.45;1.52;;;;;;;14.59;67.50;101231.44;4994012;28;20037;-94
2021/09/20 06:37:28;;;;;;;9.95;1.88;;;;;;;14.58;67.75;101237.66;4995396;28;20440;-95
2021/09/20 06:39:54;;;;;;;5.07;1.15;;;;;;;14.65;67.81;101227.50;4995205;28;20029;-95
2021/09/20 06:42:19;;;;;;;8.48;1.92;;;;;;;14.46;68.60;101238.53;4991720;28;20113;-93
2021/09/20 06:44:44;;;;;;;6.35;1.40;;;;;;;14.62;68.54;101247.06;4989978;28;20104;-94
2021/09/20 06:47:10;;;;;;;14.38;1.45;;;;;;;14.79;67.62;101237.94;4985249;28;20033;-92
2021/09/20 06:49:36;;;;;;;6.70;1.40;;;;;;;14.86;67.79;101244.44;4989157;28;20034;-93
2021/09/20 06:52:01;;;;;;;4.10;0.98;;;;;;;14.84;68.42;101240.22;4975409;28;20070;-93
2021/09/20 06:54:27;;;;;;;3.60;1.00;;;;;;;14.94;67.96;101241.25;4975775;28;20033;-93
2021/09/20 06:56:52;;;;;;;9.65;1.88;;;;;;;15.12;67.58;101244.34;4976285;28;20026;-94
2021/09/20 06:59:18;;;;;;;14.88;1.75;;;;;;;15.15;67.64;101240.66;4994914;28;20033;-92
2021/09/20 07:01:43;;;;;;;6.32;1.40;;;;;;;15.27;67.05;101239.72;4974802;28;20032;-93
2021/09/20 07:04:09;;;;;;;4.88;1.10;;;;;;;15.37;67.06;101255.75;4973681;28;20026;-94
2021/09/20 07:06:34;;;;;;;10.55;1.50;;;;;;;15.48;67.09;101250.47;4973617;28;20019;-93
2021/09/20 07:08:59;;;;;;;6.05;1.08;;;;;;;15.56;66.41;101242.84;4972488;28;20477;-93
2021/09/20 07:11:25;;;;;;;7.68;1.48;;;;;;;15.72;66.05;101257.53;4976030;28;20062;-95
2021/09/20 07:13:51;;;;;;;7.13;1.30;;;;;;;15.82;65.89;101263.88;4974184;28;20015;-95
2021/09/20 07:16:16;;;;;;;11.75;1.17;;;;;;;15.88;65.73;101273.13;4973266;28;20037;-93
2021/09/20 07:18:42;;;;;;;9.55;1.20;;;;;;;15.86;65.85;101271.44;4972965;28;20038;-91
2021/09/20 07:21:07;;;;;;;10.20;1.45;;;;;;;15.90;65.37;101282.66;4980199;28;20022;-90
2021/09/20 07:23:33;;;;;;;6.35;1.40;;;;;;;15.92;64.86;101269.31;4994386;28;20028;-91
2021/09/20 07:25:58;;;;;;;3.92;1.20;;;;;;;16.28;64.07;101270.06;4977969;28;20058;-91
2021/09/20 07:28:24;;;;;;;7.28;1.40;;;;;;;16.31;64.05;101275.09;4977618;28;20066;-91
2021/09/20 07:30:49;;;;;;;3.70;1.15;;;;;;;16.34;63.48;101273.06;4975888;28;20031;-92
2021/09/20 07:33:14;;;;;;;6.93;1.42;;;;;;;16.50;63.79;101274.50;4985600;28;20450;-91
2021/09/20 07:35:41;;;;;;;4.18;0.90;;;;;;;16.56;63.12;101274.84;4992002;28;20027;-92
2021/09/20 07:38:06;;;;;;;6.90;1.10;;;;;;;16.96;62.42;101284.97;4993948;28;20389;-92
2021/09/20 07:40:32;;;;;;;11.95;1.30;;;;;;;16.98;62.64;101288.34;4991046;28;20044;-91
2021/09/20 07:42:59;;;;;;;7.03;1.20;;;;;;;17.07;62.55;101294.69;4980865;28;20034;-91
2021/09/20 07:45:25;;;;;;;7.82;1.45;;;;;;;17.45;61.92;101293.34;4976352;28;20038;-92
2021/09/20 07:47:51;;;;;;;7.95;0.88;;;;;;;17.74;60.83;101293.56;4974269;28;20384;-92
2021/09/20 07:50:18;;;;;;;9.80;1.13;;;;;;;18.36;59.55;101286.53;4974273;28;20030;-91
2021/09/20 07:52:45;;;;;;;6.50;1.00;;;;;;;19.44;55.86;101289.47;4974143;28;20565;-92
2021/09/20 07:55:11;;;;;;;3.38;0.90;;;;;;;20.53;53.80;101289.91;4974095;28;20031;-92
2021/09/20 07:57:36;;;;;;;7.40;1.10;;;;;;;21.39;50.72;101290.38;4973596;28;20385;-92
2021/09/20 08:00:03;;;;;;;4.70;1.00;;;;;;;22.53;48.64;101289.50;4973818;28;20030;-92
2021/09/20 08:02:29;;;;;;;3.25;1.00;;;;;;;23.53;45.89;101304.81;4974059;28;20509;-92
2021/09/20 08:04:54;;;;;;;7.05;1.10;;;;;;;24.45;44.11;101297.28;4974019;28;20109;-93
2021/09/20 08:07:19;;;;;;;4.00;1.02;;;;;;;25.17;41.57;101306.16;4973823;28;20386;-92
2021/09/20 08:09:45;;;;;;;6.20;0.80;;;;;;;26.01;40.08;101307.03;4974075;28;20031;-92
2021/09/20 08:12:11;;;;;;;4.07;0.80;;;;;;;26.63;38.67;101307.69;4974837;28;20508;-92
2021/09/20 08:14:36;;;;;;;2.78;0.80;;;;;;;27.07;38.47;101310.28;4981168;28;20019;-90
2021/09/20 08:17:02;;;;;;;5.15;0.88;;;;;;;27.44;37.09;101316.47;4975156;28;20034;-91
2021/09/20 08:19:27;;;;;;;7.72;1.20;;;;;;;28.38;36.35;101309.91;4967681;28;20037;-91
2021/09/20 08:21:53;;;;;;;3.88;0.93;;;;;;;26.28;38.08;101316.34;4973342;28;20038;-91
2021/09/20 08:24:18;;;;;;;5.43;1.10;;;;;;;27.20;37.17;101314.97;4989430;28;20037;-91
2021/09/20 08:26:44;;;;;;;4.35;0.75;;;;;;;28.38;36.37;101312.59;4972196;28;20493;-92
2021/09/20 08:29:09;;;;;;;6.53;1.60;;;;;;;28.74;35.72;101316.13;4953833;28;20027;-91
2021/09/20 08:31:35;;;;;;;7.20;1.70;;;;;;;29.20;33.79;101313.56;4968126;28;20054;-91
2021/09/20 08:34:01;;;;;;;3.80;1.08;;;;;;;28.48;35.81;101318.47;4980777;28;20034;-91
2021/09/20 08:36:26;;;;;;;3.10;0.60;;;;;;;29.60;33.80;101321.72;4981822;28;20034;-91
2021/09/20 08:38:52;;;;;;;4.50;1.33;;;;;;;30.08;33.44;101317.94;4983588;28;20041;-91
2021/09/20 08:41:18;;;;;;;4.95;1.08;;;;;;;29.75;33.98;101323.41;4973343;28;20457;-92
2021/09/20 08:43:44;;;;;;;6.07;1.50;;;;;;;29.66;33.20;101320.88;4980223;28;20072;-92
2021/09/20 08:46:09;;;;;;;5.68;1.02;;;;;;;28.26;34.84;101330.41;4990647;28;20050;-92
2021/09/20 08:48:39;;;;;;;5.43;0.90;;;;;;;29.02;34.76;101324.91;4991061;28;20058;-92
2021/09/20 08:51:05;;;;;;;9.40;1.02;;;;;;;29.76;33.50;101325.91;4992378;28;20074;-92
2021/09/20 08:53:30;;;;;;;3.80;0.93;;;;;;;29.74;33.63;101332.56;4991069;28;20038;-92
2021/09/20 08:55:56;;;;;;;2.28;0.82;;;;;;;29.93;33.33;101331.72;4989928;28;20031;-91
2021/09/20 08:58:21;;;;;;;6.72;0.75;;;;;;;29.87;34.51;101337.13;4973017;28;20038;-91
2021/09/20 09:00:46;;;;;;;6.72;1.33;;;;;;;29.03;34.85;101331.19;4986898;28;20026;-91
2021/09/20 09:03:12;;;;;;;2.92;0.68;;;;;;;29.46;34.57;101339.81;4974062;28;20437;-91
2021/09/20 09:05:37;;;;;;;4.22;0.82;;;;;;;30.38;33.08;101341.88;4972848;28;20477;-90
2021/09/20 09:08:05;;;;;;;4.78;1.17;;;;;;;30.03;34.00;101348.34;4972285;28;20039;-92
2021/09/20 09:10:34;;;;;;;3.15;0.90;;;;;;;31.26;32.28;101345.84;4953931;28;20082;-92
2021/09/20 09:13:06;;;;;;;4.35;1.33;;;;;;;31.40;31.64;101353.69;4963491;28;20453;-92
2021/09/20 09:15:33;;;;;;;4.88;0.80;;;;;;;30.95;32.51;101347.50;4972583;28;20378;-91
2021/09/20 09:18:01;;;;;;;6.57;1.20;;;;;;;31.14;32.75;101357.41;4974272;28;20433;-92
2021/09/20 09:20:31;;;;;;;5.90;1.05;;;;;;;31.46;31.63;101352.03;4987151;28;20481;-92
2021/09/20 09:23:08;;;;;;;5.15;1.13;;;;;;;31.94;32.48;101354.09;4992455;28;20572;-92
2021/09/20 09:25:37;;;;;;;5.57;1.05;;;;;;;32.32;31.63;101353.13;4992410;28;20101;-92
2021/09/20 09:28:16;;;;;;;7.30;1.15;;;;;;;31.72;32.16;101361.00;4992365;28;20026;-92
2021/09/20 09:30:47;;;;;;;8.25;1.88;;;;;;;30.94;32.98;101362.09;4992291;28;20039;-92
2021/09/20 09:33:15;;;;;;;7.82;1.13;;;;;;;31.50;32.29;101350.53;4991752;28;20036;-92
2021/09/20 09:35:53;;;;;;;5.20;1.15;;;;;;;32.35;31.62;101355.41;4974117;28;20045;-91
2021/09/20 09:38:19;;;;;;;5.15;1.40;;;;;;;32.45;31.22;101362.22;4971297;28;20031;-92
2021/09/20 09:40:55;;;;;;;4.38;0.98;;;;;;;32.66;30.70;101367.19;4974900;28;20035;-91
2021/09/20 09:43:28;;;;;;;6.93;1.00;;;;;;;31.26;32.69;101370.28;4974497;28;20027;-91
2021/09/20 09:45:58;;;;;;;7.57;1.42;;;;;;;31.09;33.38;101368.06;4976491;28;20034;-90
2021/09/20 09:48:28;;;;;;;6.32;1.17;;;;;;;32.35;31.12;101363.56;4989084;28;20392;-91
2021/09/20 09:50:59;;;;;;;7.03;1.13;;;;;;;31.77;31.94;101369.31;4985387;28;20113;-91
2021/09/20 09:53:31;;;;;;;3.90;0.90;;;;;;;31.87;31.72;101372.34;4976625;28;20063;-90
2021/09/20 09:56:00;;;;;;;5.80;1.38;;;;;;;32.49;30.97;101369.66;4994522;28;20030;-90
2021/09/20 09:58:26;;;;;;;3.83;1.13;;;;;;;31.93;31.73;101371.47;4992683;28;20026;-90
2021/09/20 10:01:14;;;;;;;3.63;0.73;;;;;;;31.49;31.70;101372.44;4995738;28;20406;-90
2021/09/20 10:04:23;;;;;;;5.65;1.15;;;;;;;32.32;30.97;101365.88;4984038;28;20030;-90
2021/09/20 10:06:54;;;;;;;4.10;0.95;;;;;;;32.71;31.11;101371.94;4976408;28;20114;-90
2021/09/20 10:09:28;;;;;;;6.50;1.00;;;;;;;33.10;30.79;101381.50;4992308;28;20031;-91
2021/09/20 10:11:56;;;;;;;6.55;1.30;;;;;;;31.75;31.63;101379.56;4987571;28;20065;-90
2021/09/20 10:14:22;;;;;;;9.27;1.20;;;;;;;32.10;31.26;101379.91;4976085;28;20058;-90
2021/09/20 10:16:51;;;;;;;4.10;0.82;;;;;;;33.33;30.00;101372.56;4980540;28;20026;-90
2021/09/20 10:19:17;;;;;;;5.38;0.93;;;;;;;33.70;29.51;101374.34;4975931;28;20035;-91
2021/09/20 10:21:42;;;;;;;4.57;1.00;;;;;;;34.02;28.49;101374.00;4987238;28;20045;-91
2021/09/20 10:24:07;;;;;;;5.22;0.98;;;;;;;33.66;29.22;101371.25;4995288;28;20022;-91
2021/09/20 10:26:34;;;;;;;9.27;1.10;;;;;;;32.70;30.32;101376.56;4993504;28;20035;-90
2021/09/20 10:29:04;;;;;;;6.63;1.17;;;;;;;33.98;28.77;101369.03;4995221;28;20022;-90
2021/09/20 10:31:31;;;;;;;6.15;1.10;;;;;;;32.98;28.98;101369.72;4984544;28;20030;-91
2021/09/20 10:34:19;;;;;;;5.10;0.77;;;;;;;33.27;29.76;101378.13;4990992;28;20069;-90
2021/09/20 10:36:53;;;;;;;4.47;0.90;;;;;;;33.55;28.79;101375.59;4983501;28;20023;-90
2021/09/20 10:39:40;;;;;;;7.85;0.90;;;;;;;32.81;29.49;101377.69;4981156;28;20030;-91
2021/09/20 10:42:06;;;;;;;2.88;0.60;;;;;;;33.06;29.04;101372.13;4956066;28;20016;-90
2021/09/20 10:44:41;;;;;;;3.95;0.70;;;;;;;31.98;29.91;101376.22;4960350;28;20524;-90
2021/09/20 10:47:15;;;;;;;7.68;1.27;;;;;;;31.41;31.97;101376.22;4994613;28;20065;-91
2021/09/20 10:49:48;;;;;;;12.35;1.27;;;;;;;31.21;31.06;101377.19;4993106;28;20026;-90
2021/09/20 10:52:14;;;;;;;4.93;0.98;;;;;;;31.73;30.01;101371.63;4994222;28;20026;-91
2021/09/20 10:55:00;;;;;;;4.35;0.90;;;;;;;32.74;29.75;101366.91;4990345;28;20037;-90
2021/09/20 10:57:25;;;;;;;4.35;1.13;;;;;;;31.54;32.02;101376.19;4981638;28;20088;-90
2021/09/20 10:59:50;;;;;;;12.18;1.30;;;;;;;31.13;31.73;101377.44;4993070;28;20035;-91
2021/09/20 11:02:19;;;;;;;7.80;1.70;;;;;;;31.32;30.41;101378.38;4994487;28;20072;-90
2021/09/20 11:04:45;;;;;;;4.28;1.15;;;;;;;32.03;30.88;101378.28;4992256;28;20026;-89
2021/09/20 11:07:16;;;;;;;5.75;0.88;;;;;;;31.46;30.39;101381.03;4974538;28;20038;-90
2021/09/20 11:09:44;;;;;;;;;;;;;;;32.24;29.66;101382.50;4974267;28;20031;-90
2021/09/20 11:12:12;;;;;;;4.55;1.00;;;;;;;32.34;29.62;101380.06;4977811;28;19968;-90
2021/09/20 11:14:44;;;;;;;5.00;0.70;;;;;;;32.02;30.85;101377.47;4959505;28;20486;-90
2021/09/20 11:17:19;;;;;;;4.53;1.05;;;;;;;31.77;31.19;101385.59;4981628;28;20042;-90
2021/09/20 11:19:46;;;;;;;3.22;0.70;;;;;;;32.69;29.63;101388.50;4959607;28;20054;-89
2021/09/20 11:22:14;;;;;;;6.18;0.90;;;;;;;32.67;29.00;101385.16;4974514;28;20018;-91